Time;durP1;ratioP1;P1;durP2;ratioP2;P2;SDS_P1;SDS_P2;PMS_P1;PMS_P2;Temp;Humidity;BMP_temperature;BMP_pressure;BME280_temperature;BME280_humidity;BME280_pressure;Samples;Min_cycle;Max_cycle;Signal;HPM_P1;HPM_P2
2022/08/09 00:00:57;;;;;;;9.15;6.93;;;;;;;18.99;100.00;100645.22;5132262;27;20060;-73
2022/08/09 00:03:26;;;;;;;8.85;6.45;;;;;;;18.95;100.00;100647.38;5133298;27;20506;-74
2022/08/09 00:06:15;;;;;;;10.15;6.53;;;;;;;18.99;100.00;100650.63;5133731;27;20039;-72
2022/08/09 00:08:50;;;;;;;9.32;6.30;;;;;;;18.96;100.00;100653.63;5133537;27;20035;-70
2022/08/09 00:11:21;;;;;;;9.07;6.60;;;;;;;18.96;100.00;100650.94;5133518;27;20042;-73
2022/08/09 00:13:51;;;;;;;8.38;6.65;;;;;;;18.88;100.00;100651.59;5133849;27;20049;-72
2022/08/09 00:16:20;;;;;;;9.02;6.07;;;;;;;18.87;100.00;100648.03;5133273;27;20406;-73
2022/08/09 00:19:05;;;;;;;8.05;6.40;;;;;;;18.86;100.00;100649.03;5133596;27;20063;-73
2022/08/09 00:21:38;;;;;;;8.93;6.57;;;;;;;18.83;100.00;100649.31;5133529;27;20043;-72
2022/08/09 00:24:24;;;;;;;8.90;6.13;;;;;;;18.84;100.00;100659.13;5133193;27;20472;-72
2022/08/09 00:26:55;;;;;;;9.27;6.30;;;;;;;18.91;100.00;100661.28;5133152;27;20050;-72
2022/08/09 00:29:24;;;;;;;7.38;5.22;;;;;;;19.09;100.00;100659.63;5131526;27;20067;-72
2022/08/09 00:32:12;;;;;;;6.13;4.70;;;;;;;19.21;100.00;100661.28;5133494;27;20487;-73
2022/08/09 00:34:54;;;;;;;9.05;5.20;;;;;;;19.10;100.00;100662.19;5133374;27;20507;-73
2022/08/09 00:37:23;;;;;;;7.03;5.25;;;;;;;19.10;100.00;100664.91;5131916;28;20047;-74
2022/08/09 00:39:51;;;;;;;6.28;4.93;;;;;;;19.08;100.00;100655.22;5133272;27;20045;-74
2022/08/09 00:42:39;;;;;;;8.32;5.15;;;;;;;18.94;100.00;100632.16;5134213;27;20043;-74
2022/08/09 00:45:27;;;;;;;7.47;5.07;;;;;;;18.96;100.00;100646.38;5137497;27;20049;-76
2022/08/09 00:47:55;;;;;;;7.32;5.13;;;;;;;18.92;100.00;100653.06;5137833;27;20043;-80
2022/08/09 00:50:25;;;;;;;7.43;5.30;;;;;;;18.92;100.00;100644.09;5137379;27;20117;-87
2022/08/09 00:52:54;;;;;;;6.90;4.90;;;;;;;18.88;100.00;100646.19;5136501;27;20043;-80
2022/08/09 00:55:22;;;;;;;7.93;4.95;;;;;;;19.00;100.00;100639.69;5137471;27;20043;-80
2022/08/09 00:58:10;;;;;;;7.32;5.05;;;;;;;19.10;100.00;100631.59;5137505;27;20043;-79
2022/08/09 01:00:52;;;;;;;8.43;4.57;;;;;;;18.99;100.00;100632.56;5137582;27;20047;-79
2022/08/09 01:03:28;;;;;;;8.90;4.95;;;;;;;19.11;100.00;100633.34;5137625;27;20433;-82
2022/08/09 01:06:06;;;;;;;5.78;4.57;;;;;;;19.46;100.00;100630.13;5137695;27;20059;-77
2022/08/09 01:08:54;;;;;;;8.82;4.80;;;;;;;19.37;100.00;100629.13;5137281;27;20051;-77
2022/08/09 01:11:34;;;;;;;6.57;5.40;;;;;;;19.34;100.00;100632.09;5136970;27;20073;-79
2022/08/09 01:14:07;;;;;;;9.43;5.47;;;;;;;19.25;100.00;100627.53;5137649;27;20051;-82
2022/08/09 01:16:43;;;;;;;7.53;5.28;;;;;;;19.12;100.00;100622.38;5137296;27;20066;-78
2022/08/09 01:19:32;;;;;;;7.05;5.07;;;;;;;18.81;100.00;100629.66;5137226;27;20047;-83
2022/08/09 01:22:47;;;;;;;8.18;5.50;;;;;;;18.75;100.00;100632.06;5137003;27;20470;-85
2022/08/09 01:25:37;;;;;;;9.15;5.32;;;;;;;18.74;100.00;100625.81;5136765;27;20086;-82
2022/08/09 01:28:12;;;;;;;7.88;5.50;;;;;;;18.99;100.00;100615.50;5137062;27;20113;-82
2022/08/09 01:30:43;;;;;;;7.55;5.90;;;;;;;19.00;100.00;100619.91;5136705;27;20047;-81
2022/08/09 01:33:23;;;;;;;6.90;5.65;;;;;;;19.03;100.00;100615.09;5136789;27;20043;-81
2022/08/09 01:35:59;;;;;;;8.10;5.57;;;;;;;18.87;100.00;100621.00;5136799;27;20127;-80
2022/08/09 01:38:31;;;;;;;9.00;5.85;;;;;;;18.81;100.00;100618.84;5136206;27;20043;-76
2022/08/09 01:41:05;;;;;;;8.67;6.00;;;;;;;18.72;100.00;100614.28;5136651;27;20046;-75
2022/08/09 01:43:37;;;;;;;9.57;6.20;;;;;;;18.70;100.00;100618.94;5136218;27;20043;-75
2022/08/09 01:46:21;;;;;;;8.23;5.78;;;;;;;18.83;100.00;100616.03;5136184;27;20558;-76
2022/08/09 01:48:57;;;;;;;8.80;5.82;;;;;;;18.94;100.00;100615.06;5136423;27;20077;-76
2022/08/09 01:51:43;;;;;;;10.82;5.43;;;;;;;18.96;100.00;100613.09;5136007;27;20043;-77
2022/08/09 01:54:24;;;;;;;6.50;5.15;;;;;;;18.94;100.00;100615.94;5136630;27;20043;-82
2022/08/09 01:56:56;;;;;;;9.57;5.65;;;;;;;18.96;100.00;100610.38;5136349;27;20166;-77
2022/08/09 01:59:32;;;;;;;7.15;5.30;;;;;;;18.97;100.00;100607.53;5135848;27;20407;-77
2022/08/09 02:02:20;;;;;;;7.85;5.65;;;;;;;18.92;100.00;100603.56;5136206;27;20051;-81
2022/08/09 02:04:50;;;;;;;8.63;5.55;;;;;;;18.85;100.00;100600.53;5135749;27;20130;-81
2022/08/09 02:07:25;;;;;;;8.38;5.35;;;;;;;18.84;100.00;100604.22;5136085;27;20092;-80
2022/08/09 02:10:19;;;;;;;7.38;5.22;;;;;;;18.67;100.00;100604.88;5136100;27;20054;-79
2022/08/09 02:12:59;;;;;;;7.60;5.47;;;;;;;18.63;100.00;100609.66;5136084;27;20035;-80
2022/08/09 02:15:33;;;;;;;7.60;5.32;;;;;;;18.65;100.00;100604.16;5135987;27;20446;-80
2022/08/09 02:18:21;;;;;;;7.50;5.03;;;;;;;18.74;100.00;100612.28;5135804;27;20088;-79
2022/08/09 02:20:55;;;;;;;8.15;5.35;;;;;;;18.81;100.00;100607.19;5135750;27;20050;-80
2022/08/09 02:23:29;;;;;;;7.57;4.88;;;;;;;18.95;100.00;100605.97;5135728;27;20075;-80
2022/08/09 02:26:12;;;;;;;8.98;5.55;;;;;;;18.77;100.00;100597.66;5135753;27;20381;-79
2022/08/09 02:28:57;;;;;;;9.05;5.65;;;;;;;18.83;100.00;100589.88;5135552;27;20039;-80
2022/08/09 02:31:30;;;;;;;9.85;6.00;;;;;;;18.74;100.00;100595.22;5135350;27;20046;-81
2022/08/09 02:34:11;;;;;;;7.25;5.65;;;;;;;18.67;100.00;100599.47;5135280;27;20110;-79
2022/08/09 02:36:57;;;;;;;8.68;5.85;;;;;;;18.66;100.00;100593.19;5135424;27;20172;-74
2022/08/09 02:39:29;;;;;;;;;;;;;;;18.69;100.00;100590.22;5136288;27;20100;-80
2022/08/09 02:42:05;;;;;;;7.80;5.63;;;;;;;18.68;100.00;100585.81;5135467;27;19919;-81
2022/08/09 02:44:37;;;;;;;7.87;6.37;;;;;;;18.60;100.00;100591.00;5135143;27;20075;-81
2022/08/09 02:47:10;;;;;;;9.50;6.13;;;;;;;18.55;100.00;100585.16;5136046;27;20797;-82
2022/08/09 02:49:43;;;;;;;8.90;5.75;;;;;;;18.38;100.00;100593.88;5137281;27;20058;-81
2022/08/09 02:52:14;;;;;;;10.60;6.28;;;;;;;18.43;100.00;100592.50;5136622;27;20079;-76
2022/08/09 02:54:44;;;;;;;7.25;5.95;;;;;;;18.43;100.00;100592.50;5158254;27;20031;-81
2022/08/09 02:57:24;;;;;;;8.32;5.82;;;;;;;18.46;100.00;100594.06;5157673;27;20035;-79
2022/08/09 02:59:55;;;;;;;9.48;6.53;;;;;;;18.51;100.00;100594.50;5136455;27;20080;-80
2022/08/09 03:02:51;;;;;;;7.93;5.68;;;;;;;18.21;100.00;100592.66;5134225;27;20043;-78
2022/08/09 03:05:28;;;;;;;8.80;6.50;;;;;;;18.25;100.00;100594.97;5133026;27;20062;-81
2022/08/09 03:08:03;;;;;;;9.35;5.95;;;;;;;18.22;100.00;100600.59;5133468;27;20483;-79
2022/08/09 03:10:34;;;;;;;6.82;5.97;;;;;;;18.20;100.00;100597.19;5134612;27;20134;-77
2022/08/09 03:13:03;;;;;;;9.45;5.80;;;;;;;18.04;100.00;100596.78;5135282;27;20035;-83
2022/08/09 03:15:42;;;;;;;9.35;5.80;;;;;;;17.94;100.00;100596.72;5135091;27;20071;-87
2022/08/09 03:18:32;;;;;;;8.30;6.35;;;;;;;18.06;100.00;100605.63;5134301;27;20081;-76
2022/08/09 03:21:07;;;;;;;9.15;6.43;;;;;;;18.09;100.00;100605.38;5134931;27;20039;-74
2022/08/09 03:23:36;;;;;;;10.40;5.93;;;;;;;18.17;100.00;100602.88;5134078;27;20339;-75
2022/08/09 03:26:04;;;;;;;8.45;6.53;;;;;;;18.12;100.00;100597.00;5134275;27;20035;-76
2022/08/09 03:28:34;;;;;;;10.57;6.20;;;;;;;18.07;100.00;100601.09;5134020;27;20096;-75
2022/08/09 03:31:04;;;;;;;8.68;5.63;;;;;;;18.12;100.00;100601.53;5134563;27;20085;-76
2022/08/09 03:33:51;;;;;;;10.25;6.40;;;;;;;18.12;100.00;100599.69;5134292;27;20043;-75
2022/08/09 03:36:24;;;;;;;8.98;6.00;;;;;;;18.12;100.00;100602.41;5132987;27;20071;-76
2022/08/09 03:38:55;;;;;;;6.63;5.93;;;;;;;18.04;100.00;100604.88;5134078;27;20066;-77
2022/08/09 03:41:24;;;;;;;10.05;5.88;;;;;;;18.03;100.00;100603.19;5133961;27;20449;-76
2022/08/09 03:44:12;;;;;;;9.57;6.68;;;;;;;17.94;100.00;100596.72;5134102;27;20039;-78
2022/08/09 03:46:43;;;;;;;9.32;6.15;;;;;;;17.86;100.00;100599.25;5133609;27;20460;-78
2022/08/09 03:49:14;;;;;;;8.25;6.35;;;;;;;17.87;100.00;100600.97;5134099;27;20067;-78
2022/08/09 03:51:48;;;;;;;9.68;5.80;;;;;;;17.98;100.00;100602.72;5134103;27;20031;-77
2022/08/09 03:54:27;;;;;;;9.32;5.90;;;;;;;17.90;100.00;100605.22;5134165;27;20039;-77
2022/08/09 03:57:01;;;;;;;9.45;6.13;;;;;;;17.94;100.00;100602.13;5134145;27;20407;-77
2022/08/09 03:59:40;;;;;;;9.25;6.20;;;;;;;17.85;100.00;100607.44;5133486;27;20064;-83
2022/08/09 04:02:24;;;;;;;8.77;5.85;;;;;;;17.83;100.00;100596.78;5134097;27;20051;-83
2022/08/09 04:04:59;;;;;;;11.18;6.47;;;;;;;17.93;100.00;100600.41;5133693;27;20494;-83
2022/08/09 04:07:34;;;;;;;8.52;6.13;;;;;;;17.91;100.00;100596.13;5133565;27;20039;-83
2022/08/09 04:10:21;;;;;;;10.20;5.90;;;;;;;18.27;100.00;100598.38;5133802;27;20051;-83
2022/08/09 04:12:58;;;;;;;10.48;5.80;;;;;;;18.15;100.00;100594.06;5133565;27;20428;-83
2022/08/09 04:15:31;;;;;;;8.10;5.38;;;;;;;18.21;100.00;100604.31;5133694;27;20047;-76
2022/08/09 04:18:19;;;;;;;8.05;6.00;;;;;;;18.37;100.00;100611.09;5132992;27;20043;-75
2022/08/09 04:20:50;;;;;;;9.30;6.55;;;;;;;18.38;100.00;100594.75;5133404;27;20396;-75
2022/08/09 04:23:19;;;;;;;8.70;6.07;;;;;;;18.44;100.00;100605.00;5133854;27;20092;-74
2022/08/09 04:25:53;;;;;;;9.50;6.18;;;;;;;18.50;100.00;100609.88;5133508;27;20039;-76
2022/08/09 04:28:22;;;;;;;10.90;5.95;;;;;;;18.55;100.00;100612.19;5132638;27;20051;-77
2022/08/09 04:31:04;;;;;;;10.48;6.38;;;;;;;18.53;100.00;100614.16;5133987;27;20039;-77
2022/08/09 04:33:35;;;;;;;8.83;6.33;;;;;;;18.81;100.00;100618.84;5133237;27;20043;-76
2022/08/09 04:36:24;;;;;;;9.02;5.88;;;;;;;19.05;100.00;100620.38;5133544;27;20043;-79
2022/08/09 04:38:53;;;;;;;12.07;6.23;;;;;;;19.40;100.00;100620.75;5133379;27;20130;-76
2022/08/09 04:41:21;;;;;;;8.57;6.05;;;;;;;19.72;100.00;100616.94;5133338;28;20043;-77
2022/08/09 04:43:52;;;;;;;10.48;6.20;;;;;;;19.78;100.00;100620.91;5132112;28;20126;-77
2022/08/09 04:46:43;;;;;;;9.07;6.00;;;;;;;19.72;100.00;100622.34;5132884;28;20074;-76
2022/08/09 04:49:31;;;;;;;11.80;6.15;;;;;;;20.11;100.00;100619.63;5133198;28;20054;-77
2022/08/09 04:52:22;;;;;;;9.23;5.63;;;;;;;20.37;100.00;100626.16;5132779;28;20035;-74
2022/08/09 04:55:01;;;;;;;10.20;6.25;;;;;;;20.82;100.00;100630.88;5133253;28;20062;-74
2022/08/09 04:57:34;;;;;;;10.80;6.35;;;;;;;21.36;100.00;100630.06;5133035;27;20088;-74
2022/08/09 05:00:22;;;;;;;8.80;5.75;;;;;;;21.92;100.00;100622.63;5132473;28;20039;-73
2022/08/09 05:02:50;;;;;;;10.40;5.97;;;;;;;21.78;100.00;100625.88;5131552;28;20057;-75
2022/08/09 05:05:20;;;;;;;10.98;5.95;;;;;;;21.48;100.00;100630.69;5133148;27;20055;-76
2022/08/09 05:08:10;;;;;;;10.43;6.13;;;;;;;21.34;100.00;100626.63;5133058;27;20373;-75
2022/08/09 05:10:42;;;;;;;;;;;;;;;21.12;100.00;100630.56;5133333;27;20134;-76
2022/08/09 05:13:11;;;;;;;9.68;6.35;;;;;;;21.27;100.00;100627.41;5132853;27;20018;-77
2022/08/09 05:15:41;;;;;;;14.80;6.10;;;;;;;21.34;100.00;100623.94;5131227;28;20130;-75
2022/08/09 05:18:28;;;;;;;8.10;6.07;;;;;;;21.90;100.00;100632.78;5133308;28;20039;-75
2022/08/09 05:21:17;;;;;;;8.73;6.07;;;;;;;22.13;100.00;100639.47;5132679;28;20066;-77
2022/08/09 05:23:53;;;;;;;11.02;5.30;;;;;;;22.55;100.00;100642.31;5132261;28;20263;-72
2022/08/09 05:26:28;;;;;;;7.68;5.30;;;;;;;23.26;100.00;100640.31;5132464;27;20039;-74
2022/08/09 05:29:15;;;;;;;8.27;5.00;;;;;;;23.56;100.00;100638.88;5134366;27;20059;-72
2022/08/09 05:31:45;;;;;;;9.17;5.83;;;;;;;24.16;100.00;100634.03;5136055;27;20035;-76
2022/08/09 05:34:25;;;;;;;9.73;5.25;;;;;;;24.62;100.00;100638.94;5135999;27;20303;-76
2022/08/09 05:37:00;;;;;;;8.43;4.97;;;;;;;24.55;100.00;100642.38;5136153;27;20059;-75
2022/08/09 05:39:35;;;;;;;7.47;5.18;;;;;;;25.22;100.00;100632.97;5134830;27;20123;-73
2022/08/09 05:42:11;;;;;;;9.55;5.40;;;;;;;25.08;100.00;100640.84;5136484;27;20100;-73
2022/08/09 05:44:50;;;;;;;7.75;4.90;;;;;;;25.42;100.00;100641.56;5136030;27;20051;-74
2022/08/09 05:47:19;;;;;;;8.00;5.00;;;;;;;25.46;100.00;100635.56;5135957;27;20075;-75
2022/08/09 05:49:50;;;;;;;8.73;5.00;;;;;;;25.15;100.00;100637.44;5134577;27;20043;-73
2022/08/09 05:52:39;;;;;;;9.43;5.82;;;;;;;25.26;100.00;100628.84;5135290;27;20059;-74
2022/08/09 05:55:11;;;;;;;7.03;5.00;;;;;;;25.75;100.00;100634.88;5135953;27;20051;-74
2022/08/09 05:57:48;;;;;;;11.05;5.38;;;;;;;25.35;100.00;100638.69;5135448;27;20043;-72
2022/08/09 06:00:24;;;;;;;8.27;5.15;;;;;;;25.48;100.00;100632.63;5134494;27;20375;-72
2022/08/09 06:02:55;;;;;;;11.70;5.00;;;;;;;24.09;100.00;100630.28;5135580;27;20039;-72
2022/08/09 06:05:24;;;;;;;7.63;5.05;;;;;;;23.36;100.00;100633.75;5136094;27;20066;-73
2022/08/09 06:08:13;;;;;;;10.02;5.18;;;;;;;24.88;100.00;100636.81;5135522;27;20036;-73
2022/08/09 06:10:48;;;;;;;7.80;5.43;;;;;;;24.58;100.00;100641.16;5133931;27;20047;-73
2022/08/09 06:13:18;;;;;;;8.90;5.28;;;;;;;25.32;100.00;100648.09;5135574;27;20099;-72
2022/08/09 06:15:48;;;;;;;7.38;4.72;;;;;;;26.39;100.00;100653.72;5135103;27;20043;-73
2022/08/09 06:18:19;;;;;;;9.98;5.07;;;;;;;26.68;100.00;100659.22;5135742;27;20047;-76
2022/08/09 06:20:53;;;;;;;7.10;4.53;;;;;;;26.43;100.00;100644.09;5135253;27;20043;-72
2022/08/09 06:23:25;;;;;;;7.57;4.57;;;;;;;26.87;100.00;100651.50;5135020;27;20040;-75
2022/08/09 06:26:16;;;;;;;9.07;5.20;;;;;;;27.39;100.00;100644.00;5135211;27;20039;-74
2022/08/09 06:28:49;;;;;;;8.23;4.65;;;;;;;27.71;100.00;100644.66;5134809;27;20058;-74
2022/08/09 06:31:28;;;;;;;7.68;4.60;;;;;;;28.10;100.00;100637.84;5134937;27;20046;-75
2022/08/09 06:33:58;;;;;;;8.27;4.32;;;;;;;28.33;100.00;100643.13;5135001;27;20069;-74
2022/08/09 06:36:26;;;;;;;6.32;4.20;;;;;;;28.17;94.96;100638.75;5134984;27;20471;-75
2022/08/09 06:38:57;;;;;;;6.65;4.35;;;;;;;28.14;78.95;100648.22;5134592;27;20100;-78
2022/08/09 06:41:31;;;;;;;7.10;4.00;;;;;;;27.85;73.85;100645.63;5132794;27;20154;-79
2022/08/09 06:44:19;;;;;;;6.85;4.30;;;;;;;28.03;72.38;100647.91;5134731;27;20479;-71
2022/08/09 06:46:49;;;;;;;9.70;4.47;;;;;;;28.69;68.05;100643.00;5134300;27;20120;-71
2022/08/09 06:49:22;;;;;;;6.90;4.30;;;;;;;28.70;64.60;100644.69;5134820;27;20046;-75
2022/08/09 06:52:11;;;;;;;8.55;4.30;;;;;;;28.57;64.94;100647.31;5134677;27;20050;-71
2022/08/09 06:54:43;;;;;;;9.60;4.40;;;;;;;28.76;63.03;100644.75;5134305;27;20506;-74
2022/08/09 06:57:12;;;;;;;7.57;4.10;;;;;;;28.43;62.81;100643.63;5134205;27;20054;-73
2022/08/09 06:59:41;;;;;;;7.38;4.40;;;;;;;27.78;63.05;100656.50;5134007;27;20051;-74
2022/08/09 07:02:30;;;;;;;7.90;4.40;;;;;;;27.81;62.98;100650.66;5133018;27;20051;-74
2022/08/09 07:05:00;;;;;;;8.68;4.55;;;;;;;27.41;65.51;100653.94;5132966;27;20406;-73
2022/08/09 07:07:28;;;;;;;8.05;4.65;;;;;;;26.48;68.82;100649.88;5132999;27;20468;-74
2022/08/09 07:10:18;;;;;;;7.15;4.45;;;;;;;26.44;66.96;100652.13;5134398;27;20055;-73
2022/08/09 07:13:00;;;;;;;8.85;4.47;;;;;;;25.94;67.24;100655.41;5133898;27;20125;-73
2022/08/09 07:15:49;;;;;;;8.35;4.68;;;;;;;25.64;69.18;100655.25;5134181;27;20051;-73
2022/08/09 07:18:37;;;;;;;10.25;4.75;;;;;;;25.63;72.21;100653.56;5134091;27;20035;-73
2022/08/09 07:21:06;;;;;;;11.90;4.60;;;;;;;25.25;73.96;100660.75;5133997;27;20403;-74
2022/08/09 07:23:35;;;;;;;8.60;4.60;;;;;;;25.24;73.31;100658.22;5134011;27;20051;-73
2022/08/09 07:26:13;;;;;;;8.20;4.40;;;;;;;24.99;74.59;100649.22;5132553;27;20049;-73
2022/08/09 07:28:44;;;;;;;9.88;5.28;;;;;;;25.32;73.95;100649.97;5133845;27;20050;-74
2022/08/09 07:31:32;;;;;;;11.38;4.60;;;;;;;25.06;75.02;100651.09;5133660;27;20035;-73
2022/08/09 07:34:07;;;;;;;10.05;4.60;;;;;;;25.39;72.13;100657.28;5133701;27;20118;-73
2022/08/09 07:36:47;;;;;;;9.10;4.60;;;;;;;25.15;72.17;100653.81;5133370;27;20055;-73
2022/08/09 07:39:15;;;;;;;7.35;4.53;;;;;;;25.09;74.14;100649.88;5133365;27;20069;-73
2022/08/09 07:41:47;;;;;;;7.67;4.73;;;;;;;25.23;72.28;100648.31;5133575;27;20196;-75
2022/08/09 07:44:17;;;;;;;9.52;5.00;;;;;;;25.50;71.06;100644.25;5132511;27;20066;-74
2022/08/09 07:46:51;;;;;;;12.18;4.82;;;;;;;25.55;68.60;100637.22;5133439;27;20104;-74
2022/08/09 07:49:19;;;;;;;8.30;4.97;;;;;;;25.20;69.23;100637.75;5133447;27;20505;-75
2022/08/09 07:51:47;;;;;;;7.88;4.60;;;;;;;25.24;67.80;100641.81;5133261;27;20057;-75
2022/08/09 07:54:37;;;;;;;7.68;4.55;;;;;;;25.20;69.74;100643.22;5133238;27;20121;-73
2022/08/09 07:57:05;;;;;;;6.97;4.65;;;;;;;25.28;72.54;100640.44;5133167;27;20764;-74
2022/08/09 07:59:40;;;;;;;9.07;4.97;;;;;;;25.40;72.09;100642.59;5133214;27;20124;-74
2022/08/09 08:02:28;;;;;;;6.68;4.50;;;;;;;25.26;65.77;100645.22;5133616;27;20051;-73
2022/08/09 08:04:56;;;;;;;8.82;4.45;;;;;;;25.38;66.43;100647.41;5132903;27;20041;-73
2022/08/09 08:07:26;;;;;;;9.35;4.43;;;;;;;25.53;67.32;100642.00;5133003;27;20042;-73
2022/08/09 08:10:14;;;;;;;8.95;5.15;;;;;;;25.38;66.62;100649.25;5131779;27;20071;-74
2022/08/09 08:12:45;;;;;;;9.70;4.28;;;;;;;25.46;67.13;100646.47;5133323;27;20039;-74
2022/08/09 08:15:16;;;;;;;8.52;4.70;;;;;;;25.39;68.34;100651.81;5133197;27;20043;-73
2022/08/09 08:17:52;;;;;;;8.82;4.70;;;;;;;25.21;67.34;100651.22;5131366;27;20083;-75
2022/08/09 08:20:27;;;;;;;7.05;4.47;;;;;;;25.20;65.88;100651.41;5132928;27;20043;-74
2022/08/09 08:23:02;;;;;;;8.38;5.00;;;;;;;25.22;68.40;100642.00;5132520;27;20070;-74
2022/08/09 08:25:45;;;;;;;8.77;4.68;;;;;;;25.50;64.81;100647.00;5131776;27;20058;-74
2022/08/09 08:28:21;;;;;;;6.85;4.55;;;;;;;25.39;63.29;100645.50;5133186;27;20088;-74
2022/08/09 08:31:02;;;;;;;6.85;4.35;;;;;;;25.25;62.36;100638.91;5132591;27;20043;-74
2022/08/09 08:33:46;;;;;;;8.98;4.63;;;;;;;25.24;60.52;100644.56;5132848;27;20043;-73
2022/08/09 08:36:23;;;;;;;8.57;4.88;;;;;;;25.03;60.27;100640.56;5133439;27;20039;-74
2022/08/09 08:38:56;;;;;;;6.57;4.50;;;;;;;25.31;60.93;100648.28;5131300;27;20078;-73
2022/08/09 08:41:25;;;;;;;6.50;4.40;;;;;;;25.42;61.27;100642.41;5132754;27;20547;-73
2022/08/09 08:44:15;;;;;;;8.73;4.47;;;;;;;25.29;61.29;100644.88;5132797;27;20062;-73
2022/08/09 08:46:56;;;;;;;7.72;4.70;;;;;;;25.32;61.48;100641.78;5132352;27;20039;-74
2022/08/09 08:49:32;;;;;;;7.80;4.30;;;;;;;25.37;60.68;100644.81;5131218;28;20511;-73
2022/08/09 08:52:15;;;;;;;6.35;4.10;;;;;;;25.62;60.71;100640.94;5131654;28;20451;-74
2022/08/09 08:55:03;;;;;;;10.13;4.63;;;;;;;25.55;61.24;100641.81;5132377;27;20039;-74
2022/08/09 08:57:33;;;;;;;7.47;4.43;;;;;;;25.54;61.73;100638.25;5133149;28;20047;-75
2022/08/09 09:00:06;;;;;;;7.40;4.22;;;;;;;25.47;60.88;100636.41;5132426;27;20042;-73
2022/08/09 09:02:57;;;;;;;7.22;4.38;;;;;;;25.69;61.22;100639.19;5132388;27;20095;-73
2022/08/09 09:05:40;;;;;;;9.15;4.50;;;;;;;25.91;60.43;100642.97;5136606;27;20044;-73
2022/08/09 09:08:31;;;;;;;7.85;4.53;;;;;;;25.81;61.56;100638.78;5135182;27;20047;-73
2022/08/09 09:11:08;;;;;;;5.82;4.43;;;;;;;25.83;59.64;100636.72;5135194;27;20441;-73
2022/08/09 09:13:48;;;;;;;8.57;4.72;;;;;;;25.53;61.22;100636.53;5136963;27;20063;-75
2022/08/09 09:16:28;;;;;;;8.65;4.53;;;;;;;25.76;60.37;100641.19;5135409;27;20160;-73
2022/08/09 09:19:03;;;;;;;8.68;4.25;;;;;;;25.74;60.19;100630.47;5135282;27;20082;-73
2022/08/09 09:22:06;;;;;;;6.65;4.35;;;;;;;26.05;58.19;100626.81;5134848;27;20055;-75
2022/08/09 09:24:41;;;;;;;6.18;4.22;;;;;;;26.03;58.49;100627.00;5136657;27;20140;-74
2022/08/09 09:27:12;;;;;;;7.22;4.53;;;;;;;26.10;59.20;100625.22;5136372;27;20372;-75
2022/08/09 09:30:10;;;;;;;6.65;4.28;;;;;;;26.19;59.33;100629.59;5134680;27;20051;-75
2022/08/09 09:33:09;;;;;;;7.60;4.60;;;;;;;26.25;58.50;100625.28;5134700;27;20051;-73
2022/08/09 09:35:56;;;;;;;7.05;3.95;;;;;;;26.33;57.06;100629.81;5134706;27;20498;-73
2022/08/09 09:38:42;;;;;;;7.50;4.07;;;;;;;26.42;55.72;100625.97;5134775;27;20130;-73
2022/08/09 09:41:11;;;;;;;6.82;4.00;;;;;;;26.35;55.82;100641.44;5134469;27;20063;-72
2022/08/09 09:43:39;;;;;;;8.90;4.20;;;;;;;26.40;56.39;100628.91;5134279;27;20130;-75
2022/08/09 09:46:28;;;;;;;6.20;3.72;;;;;;;26.51;54.83;100641.28;5135720;27;20536;-74
2022/08/09 09:49:20;;;;;;;7.82;4.18;;;;;;;26.43;55.16;100644.09;5134369;27;20078;-73
2022/08/09 09:52:11;;;;;;;7.15;3.90;;;;;;;26.38;55.30;100638.34;5135619;27;20047;-73
2022/08/09 09:55:05;;;;;;;7.18;4.07;;;;;;;26.35;55.32;100630.50;5135792;27;20039;-73
2022/08/09 09:57:58;;;;;;;6.57;4.00;;;;;;;26.43;54.82;100638.63;5135462;27;20077;-74
2022/08/09 10:00:31;;;;;;;5.65;3.92;;;;;;;26.76;55.07;100631.78;5135526;27;20062;-74
2022/08/09 10:03:01;;;;;;;6.20;3.95;;;;;;;26.95;54.84;100626.78;5134413;27;20047;-73
2022/08/09 10:05:57;;;;;;;8.55;4.10;;;;;;;27.17;53.87;100619.53;5135810;27;20441;-73
2022/08/09 10:08:33;;;;;;;7.70;3.75;;;;;;;27.27;53.09;100631.88;5135300;27;20039;-74
2022/08/09 10:11:23;;;;;;;6.35;4.15;;;;;;;27.28;50.85;100619.88;5134314;27;20047;-74
2022/08/09 10:14:25;;;;;;;6.55;3.88;;;;;;;27.35;51.46;100618.06;5133792;27;20423;-74
2022/08/09 10:17:10;;;;;;;7.75;4.32;;;;;;;27.45;52.09;100615.00;5132935;27;20055;-73
2022/08/09 10:19:58;;;;;;;8.30;4.20;;;;;;;27.36;51.57;100618.91;5135021;27;20039;-73
2022/08/09 10:22:35;;;;;;;6.97;4.25;;;;;;;27.20;52.56;100608.16;5134234;27;20126;-74
2022/08/09 10:25:07;;;;;;;6.65;4.15;;;;;;;27.32;51.96;100609.41;5133529;27;20051;-74
2022/08/09 10:27:41;;;;;;;8.77;4.40;;;;;;;27.46;51.53;100603.00;5133617;27;20096;-73
2022/08/09 10:30:23;;;;;;;5.75;3.72;;;;;;;27.60;49.79;100607.63;5133501;27;20540;-73
2022/08/09 10:33:12;;;;;;;6.70;4.03;;;;;;;27.51;50.06;100605.19;5133353;27;20419;-73
2022/08/09 10:36:00;;;;;;;5.55;3.70;;;;;;;27.52;50.34;100595.94;5133278;27;20547;-74
2022/08/09 10:38:29;;;;;;;8.05;3.72;;;;;;;27.67;49.92;100594.84;5133740;27;20419;-75
2022/08/09 10:41:19;;;;;;;8.10;4.18;;;;;;;27.81;48.39;100593.09;5135139;27;20136;-73
2022/08/09 10:43:49;;;;;;;7.00;3.63;;;;;;;27.87;48.29;100595.03;5135116;27;20458;-74
2022/08/09 10:46:47;;;;;;;6.80;4.43;;;;;;;27.76;49.16;100602.94;5133579;27;20067;-73
2022/08/09 10:49:36;;;;;;;7.78;4.07;;;;;;;27.88;48.53;100593.97;5134754;27;20122;-73
2022/08/09 10:52:34;;;;;;;;;;;;;;;28.13;47.27;100594.44;5134982;27;20039;-73
2022/08/09 10:55:22;;;;;;;10.40;4.10;;;;;;;28.19;47.42;100590.06;5134838;27;20346;-75
2022/08/09 10:57:53;;;;;;;8.18;4.10;;;;;;;28.36;45.91;100598.84;5134825;27;20497;-72
2022/08/09 11:00:37;;;;;;;7.35;4.05;;;;;;;28.51;46.02;100594.09;5132978;27;20062;-74
2022/08/09 11:03:23;;;;;;;7.53;3.70;;;;;;;28.59;44.41;100593.09;5132935;27;20150;-74
2022/08/09 11:06:24;;;;;;;5.57;3.60;;;;;;;28.47;44.49;100590.94;5133052;27;20107;-75
2022/08/09 11:08:52;;;;;;;6.88;4.00;;;;;;;28.49;44.91;100582.50;5134329;27;20120;-74
2022/08/09 11:12:10;;;;;;;6.15;4.15;;;;;;;28.22;45.90;100585.00;5132948;27;20055;-73
2022/08/09 11:14:43;;;;;;;8.45;3.90;;;;;;;28.18;45.99;100588.31;5134449;27;20047;-74
2022/08/09 11:17:51;;;;;;;5.57;3.97;;;;;;;28.15;46.47;100575.03;5132595;27;20126;-73
2022/08/09 11:20:46;;;;;;;6.43;3.75;;;;;;;28.14;46.66;100579.66;5133938;27;20504;-73
2022/08/09 11:23:16;;;;;;;6.03;4.18;;;;;;;28.31;45.93;100585.75;5132622;27;20360;-73
2022/08/09 11:25:51;;;;;;;9.98;4.18;;;;;;;28.44;44.52;100585.81;5132186;27;20051;-73
2022/08/09 11:28:40;;;;;;;8.85;3.83;;;;;;;28.53;44.33;100581.03;5133359;27;20135;-73
2022/08/09 11:31:44;;;;;;;6.53;3.95;;;;;;;28.33;44.21;100572.66;5132661;27;20051;-74
2022/08/09 11:34:27;;;;;;;7.72;4.00;;;;;;;28.26;44.77;100576.38;5133779;27;20043;-75
2022/08/09 11:36:58;;;;;;;6.78;4.00;;;;;;;28.50;43.72;100574.06;5133884;27;20035;-73
2022/08/09 11:39:27;;;;;;;6.17;3.97;;;;;;;28.69;44.33;100571.63;5133751;27;20039;-73
2022/08/09 11:42:08;;;;;;;6.22;4.28;;;;;;;28.84;43.05;100569.59;5132136;27;20305;-74
2022/08/09 11:44:47;;;;;;;6.47;4.10;;;;;;;29.10;42.42;100562.56;5132577;27;20047;-74
2022/08/09 11:47:16;;;;;;;5.85;4.13;;;;;;;28.88;42.81;100575.53;5133361;27;20039;-73
2022/08/09 11:50:04;;;;;;;8.63;4.05;;;;;;;28.84;42.37;100563.25;5133540;27;20039;-74
2022/08/09 11:53:21;;;;;;;7.05;3.92;;;;;;;28.36;43.73;100574.16;5132075;27;20055;-72
2022/08/09 11:56:29;;;;;;;6.50;4.07;;;;;;;28.49;44.08;100575.09;5132031;27;20073;-75
2022/08/09 11:59:26;;;;;;;10.90;4.72;;;;;;;28.87;42.97;100558.22;5133420;27;20054;-73
2022/08/09 12:02:01;;;;;;;7.72;4.18;;;;;;;28.76;42.85;100556.06;5133122;27;20047;-74
2022/08/09 12:04:52;;;;;;;7.53;4.28;;;;;;;28.90;42.33;100555.09;5133415;27;20046;-73
2022/08/09 12:07:28;;;;;;;6.45;4.30;;;;;;;28.96;42.52;100562.50;5131814;27;20111;-73
2022/08/09 12:10:11;;;;;;;6.03;3.95;;;;;;;28.97;42.80;100557.88;5131737;27;20407;-73
2022/08/09 12:13:00;;;;;;;7.43;4.30;;;;;;;28.75;42.37;100551.59;5131926;27;20082;-73
2022/08/09 12:15:48;;;;;;;6.45;3.97;;;;;;;28.94;42.25;100550.03;5133132;27;20054;-73